sensor_id;sensor_type;location;lat;lon;timestamp;P1;durP1;ratioP1;P2;durP2;ratioP2
55756;SDS011;41676;44.610;44.078;2023-02-12T00:04:17;39.22;;;17.85;;
55756;SDS011;41676;44.610;44.078;2023-02-12T00:09:18;50.83;;;20.73;;
55756;SDS011;41676;44.610;44.078;2023-02-12T00:14:18;40.30;;;18.13;;
55756;SDS011;41676;44.610;44.078;2023-02-12T00:19:19;41.47;;;18.65;;
55756;SDS011;41676;44.610;44.078;2023-02-12T00:24:20;41.15;;;18.88;;
55756;SDS011;41676;44.610;44.078;2023-02-12T00:29:21;41.72;;;18.80;;
55756;SDS011;41676;44.610;44.078;2023-02-12T00:34:21;48.22;;;18.95;;
55756;SDS011;41676;44.610;44.078;2023-02-12T00:39:22;45.22;;;19.13;;
55756;SDS011;41676;44.610;44.078;2023-02-12T00:44:23;49.55;;;19.98;;
55756;SDS011;41676;44.610;44.078;2023-02-12T00:49:24;43.05;;;17.90;;
55756;SDS011;41676;44.610;44.078;2023-02-12T00:54:24;37.28;;;17.38;;
55756;SDS011;41676;44.610;44.078;2023-02-12T00:59:25;48.00;;;18.95;;
55756;SDS011;41676;44.610;44.078;2023-02-12T01:04:26;47.65;;;18.92;;
55756;SDS011;41676;44.610;44.078;2023-02-12T01:09:27;48.53;;;18.15;;
55756;SDS011;41676;44.610;44.078;2023-02-12T01:14:28;45.08;;;19.20;;
55756;SDS011;41676;44.610;44.078;2023-02-12T01:19:29;47.03;;;19.15;;
55756;SDS011;41676;44.610;44.078;2023-02-12T01:24:29;42.78;;;19.90;;
55756;SDS011;41676;44.610;44.078;2023-02-12T01:29:30;42.00;;;18.67;;
55756;SDS011;41676;44.610;44.078;2023-02-12T01:34:31;46.15;;;19.10;;
55756;SDS011;41676;44.610;44.078;2023-02-12T01:39:32;41.47;;;19.00;;
55756;SDS011;41676;44.610;44.078;2023-02-12T01:44:35;47.00;;;18.90;;
55756;SDS011;41676;44.610;44.078;2023-02-12T01:49:39;54.75;;;21.40;;
55756;SDS011;41676;44.610;44.078;2023-02-12T01:54:43;57.20;;;19.27;;
55756;SDS011;41676;44.610;44.078;2023-02-12T01:59:44;52.80;;;22.10;;
55756;SDS011;41676;44.610;44.078;2023-02-12T02:04:51;50.88;;;21.60;;
55756;SDS011;41676;44.610;44.078;2023-02-12T02:09:55;44.42;;;20.95;;
55756;SDS011;41676;44.610;44.078;2023-02-12T02:14:58;45.63;;;17.85;;
55756;SDS011;41676;44.610;44.078;2023-02-12T02:20:07;45.17;;;20.70;;
55756;SDS011;41676;44.610;44.078;2023-02-12T02:41:44;53.67;;;20.58;;
55756;SDS011;41676;44.610;44.078;2023-02-12T02:46:46;55.92;;;20.90;;
55756;SDS011;41676;44.610;44.078;2023-02-12T02:51:51;49.22;;;19.80;;
55756;SDS011;41676;44.610;44.078;2023-02-12T02:56:58;52.20;;;21.65;;
55756;SDS011;41676;44.610;44.078;2023-02-12T03:02:10;54.60;;;23.35;;
55756;SDS011;41676;44.610;44.078;2023-02-12T03:12:35;52.67;;;21.00;;
55756;SDS011;41676;44.610;44.078;2023-02-12T03:17:41;53.33;;;20.52;;
55756;SDS011;41676;44.610;44.078;2023-02-12T03:22:47;57.80;;;22.98;;
55756;SDS011;41676;44.610;44.078;2023-02-12T03:28:00;49.63;;;22.23;;
55756;SDS011;41676;44.610;44.078;2023-02-12T03:33:15;48.95;;;21.05;;
55756;SDS011;41676;44.610;44.078;2023-02-12T03:54:50;59.17;;;25.38;;
55756;SDS011;41676;44.610;44.078;2023-02-12T03:59:51;65.90;;;27.30;;
55756;SDS011;41676;44.610;44.078;2023-02-12T04:04:52;54.65;;;25.10;;
55756;SDS011;41676;44.610;44.078;2023-02-12T04:09:53;72.80;;;26.25;;
55756;SDS011;41676;44.610;44.078;2023-02-12T04:42:17;55.47;;;25.40;;
55756;SDS011;41676;44.610;44.078;2023-02-12T04:47:17;54.30;;;25.83;;
55756;SDS011;41676;44.610;44.078;2023-02-12T04:52:18;54.92;;;24.92;;
55756;SDS011;41676;44.610;44.078;2023-02-12T04:57:19;56.75;;;24.33;;
55756;SDS011;41676;44.610;44.078;2023-02-12T05:02:19;52.42;;;24.58;;
55756;SDS011;41676;44.610;44.078;2023-02-12T05:07:20;56.20;;;24.85;;
55756;SDS011;41676;44.610;44.078;2023-02-12T05:12:21;54.53;;;25.40;;
55756;SDS011;41676;44.610;44.078;2023-02-12T05:17:22;52.90;;;24.50;;
55756;SDS011;41676;44.610;44.078;2023-02-12T05:22:23;49.75;;;26.58;;
55756;SDS011;41676;44.610;44.078;2023-02-12T05:27:24;50.30;;;25.27;;
55756;SDS011;41676;44.610;44.078;2023-02-12T05:32:25;55.90;;;25.00;;
55756;SDS011;41676;44.610;44.078;2023-02-12T05:37:26;49.80;;;25.00;;
55756;SDS011;41676;44.610;44.078;2023-02-12T05:42:28;65.88;;;25.13;;
55756;SDS011;41676;44.610;44.078;2023-02-12T05:47:28;53.53;;;25.23;;
55756;SDS011;41676;44.610;44.078;2023-02-12T05:52:29;48.55;;;25.48;;
55756;SDS011;41676;44.610;44.078;2023-02-12T05:57:30;51.83;;;25.50;;
55756;SDS011;41676;44.610;44.078;2023-02-12T06:02:32;45.20;;;23.55;;
55756;SDS011;41676;44.610;44.078;2023-02-12T06:07:33;56.70;;;24.58;;
55756;SDS011;41676;44.610;44.078;2023-02-12T06:12:34;54.38;;;26.63;;
55756;SDS011;41676;44.610;44.078;2023-02-12T06:17:34;53.85;;;26.30;;
55756;SDS011;41676;44.610;44.078;2023-02-12T06:22:35;42.95;;;24.95;;
55756;SDS011;41676;44.610;44.078;2023-02-12T06:27:37;48.88;;;26.27;;
55756;SDS011;41676;44.610;44.078;2023-02-12T06:32:38;50.75;;;26.40;;
55756;SDS011;41676;44.610;44.078;2023-02-12T06:37:38;56.17;;;27.08;;
55756;SDS011;41676;44.610;44.078;2023-02-12T06:42:39;48.33;;;26.63;;
55756;SDS011;41676;44.610;44.078;2023-02-12T06:47:40;46.88;;;26.20;;
55756;SDS011;41676;44.610;44.078;2023-02-12T06:52:41;53.38;;;29.17;;
55756;SDS011;41676;44.610;44.078;2023-02-12T06:57:41;45.47;;;25.85;;
55756;SDS011;41676;44.610;44.078;2023-02-12T07:02:42;52.15;;;29.75;;
55756;SDS011;41676;44.610;44.078;2023-02-12T07:07:43;49.47;;;26.48;;
55756;SDS011;41676;44.610;44.078;2023-02-12T07:12:44;60.03;;;29.02;;
55756;SDS011;41676;44.610;44.078;2023-02-12T07:17:45;55.67;;;31.42;;
55756;SDS011;41676;44.610;44.078;2023-02-12T07:22:45;59.00;;;31.02;;
55756;SDS011;41676;44.610;44.078;2023-02-12T07:27:46;59.13;;;29.27;;
55756;SDS011;41676;44.610;44.078;2023-02-12T07:32:47;58.03;;;30.80;;
55756;SDS011;41676;44.610;44.078;2023-02-12T07:37:47;56.53;;;30.08;;
55756;SDS011;41676;44.610;44.078;2023-02-12T07:42:48;66.63;;;33.45;;
55756;SDS011;41676;44.610;44.078;2023-02-12T07:47:54;55.78;;;30.67;;
55756;SDS011;41676;44.610;44.078;2023-02-12T07:52:55;55.25;;;31.15;;
55756;SDS011;41676;44.610;44.078;2023-02-12T07:57:56;57.72;;;29.75;;
55756;SDS011;41676;44.610;44.078;2023-02-12T08:02:57;53.78;;;30.60;;
55756;SDS011;41676;44.610;44.078;2023-02-12T08:07:57;56.13;;;29.75;;
55756;SDS011;41676;44.610;44.078;2023-02-12T08:12:58;53.20;;;30.20;;
55756;SDS011;41676;44.610;44.078;2023-02-12T08:17:59;53.08;;;29.45;;
55756;SDS011;41676;44.610;44.078;2023-02-12T08:23:00;51.15;;;29.65;;
55756;SDS011;41676;44.610;44.078;2023-02-12T08:28:01;54.10;;;27.85;;
55756;SDS011;41676;44.610;44.078;2023-02-12T08:33:02;54.13;;;28.48;;
55756;SDS011;41676;44.610;44.078;2023-02-12T08:38:02;47.03;;;27.38;;
55756;SDS011;41676;44.610;44.078;2023-02-12T08:43:03;49.35;;;27.45;;
55756;SDS011;41676;44.610;44.078;2023-02-12T08:48:04;42.45;;;25.05;;
55756;SDS011;41676;44.610;44.078;2023-02-12T08:53:05;46.53;;;24.45;;
55756;SDS011;41676;44.610;44.078;2023-02-12T08:58:06;39.15;;;22.90;;
55756;SDS011;41676;44.610;44.078;2023-02-12T09:03:07;37.85;;;23.23;;
55756;SDS011;41676;44.610;44.078;2023-02-12T09:08:08;37.42;;;22.52;;
55756;SDS011;41676;44.610;44.078;2023-02-12T09:13:10;43.95;;;22.30;;
55756;SDS011;41676;44.610;44.078;2023-02-12T09:18:12;43.90;;;25.67;;
55756;SDS011;41676;44.610;44.078;2023-02-12T09:23:13;44.83;;;27.60;;
55756;SDS011;41676;44.610;44.078;2023-02-12T09:28:14;42.50;;;25.13;;
55756;SDS011;41676;44.610;44.078;2023-02-12T09:33:15;42.60;;;24.38;;
55756;SDS011;41676;44.610;44.078;2023-02-12T09:38:16;46.08;;;22.67;;
55756;SDS011;41676;44.610;44.078;2023-02-12T09:43:17;37.00;;;22.83;;
55756;SDS011;41676;44.610;44.078;2023-02-12T09:48:47;37.38;;;22.17;;
55756;SDS011;41676;44.610;44.078;2023-02-12T09:54:11;37.13;;;21.70;;
55756;SDS011;41676;44.610;44.078;2023-02-12T09:59:20;40.58;;;22.17;;
55756;SDS011;41676;44.610;44.078;2023-02-12T10:04:31;36.70;;;20.33;;
55756;SDS011;41676;44.610;44.078;2023-02-12T10:14:54;24.30;;;14.85;;
55756;SDS011;41676;44.610;44.078;2023-02-12T10:25:28;20.20;;;11.70;;
55756;SDS011;41676;44.610;44.078;2023-02-12T10:36:17;15.27;;;9.55;;
55756;SDS011;41676;44.610;44.078;2023-02-12T10:41:37;15.43;;;7.95;;
55756;SDS011;41676;44.610;44.078;2023-02-12T10:46:45;12.13;;;6.78;;
55756;SDS011;41676;44.610;44.078;2023-02-12T10:57:19;10.23;;;6.05;;
55756;SDS011;41676;44.610;44.078;2023-02-12T11:07:27;11.13;;;6.22;;
55756;SDS011;41676;44.610;44.078;2023-02-12T11:17:36;9.87;;;5.73;;
55756;SDS011;41676;44.610;44.078;2023-02-12T11:22:38;15.60;;;8.50;;
55756;SDS011;41676;44.610;44.078;2023-02-12T11:28:04;13.27;;;7.80;;
55756;SDS011;41676;44.610;44.078;2023-02-12T11:33:16;12.90;;;7.30;;
55756;SDS011;41676;44.610;44.078;2023-02-12T11:38:30;12.45;;;7.63;;
55756;SDS011;41676;44.610;44.078;2023-02-12T11:43:34;9.40;;;5.13;;
55756;SDS011;41676;44.610;44.078;2023-02-12T11:48:38;8.50;;;4.75;;
55756;SDS011;41676;44.610;44.078;2023-02-12T11:53:46;8.82;;;5.40;;
55756;SDS011;41676;44.610;44.078;2023-02-12T11:58:50;11.30;;;6.13;;
55756;SDS011;41676;44.610;44.078;2023-02-12T12:04:07;8.88;;;5.18;;
55756;SDS011;41676;44.610;44.078;2023-02-12T12:09:16;10.68;;;6.40;;
55756;SDS011;41676;44.610;44.078;2023-02-12T12:14:30;12.80;;;7.30;;
55756;SDS011;41676;44.610;44.078;2023-02-12T12:20:04;15.95;;;7.32;;
55756;SDS011;41676;44.610;44.078;2023-02-12T12:25:21;10.32;;;5.90;;
55756;SDS011;41676;44.610;44.078;2023-02-12T12:36:24;12.52;;;7.13;;
55756;SDS011;41676;44.610;44.078;2023-02-12T12:41:17;16.65;;;8.73;;
55756;SDS011;41676;44.610;44.078;2023-02-12T12:57:04;11.35;;;5.32;;
55756;SDS011;41676;44.610;44.078;2023-02-12T13:18:43;13.95;;;7.05;;
55756;SDS011;41676;44.610;44.078;2023-02-12T13:35:20;8.77;;;4.85;;
55756;SDS011;41676;44.610;44.078;2023-02-12T13:40:25;10.93;;;5.25;;
55756;SDS011;41676;44.610;44.078;2023-02-12T13:55:33;14.52;;;7.95;;
55756;SDS011;41676;44.610;44.078;2023-02-12T14:06:10;15.48;;;8.57;;
55756;SDS011;41676;44.610;44.078;2023-02-12T14:11:18;14.60;;;7.63;;
55756;SDS011;41676;44.610;44.078;2023-02-12T14:26:29;16.27;;;6.45;;
55756;SDS011;41676;44.610;44.078;2023-02-12T14:31:37;11.45;;;5.88;;
55756;SDS011;41676;44.610;44.078;2023-02-12T14:36:39;9.50;;;5.38;;
55756;SDS011;41676;44.610;44.078;2023-02-12T14:41:43;10.55;;;5.57;;
55756;SDS011;41676;44.610;44.078;2023-02-12T15:02:38;8.80;;;4.65;;
55756;SDS011;41676;44.610;44.078;2023-02-12T15:07:45;6.72;;;4.43;;
55756;SDS011;41676;44.610;44.078;2023-02-12T15:18:27;6.78;;;3.38;;
55756;SDS011;41676;44.610;44.078;2023-02-12T15:28:35;6.90;;;2.67;;
55756;SDS011;41676;44.610;44.078;2023-02-12T15:33:41;4.88;;;2.85;;
55756;SDS011;41676;44.610;44.078;2023-02-12T15:39:04;5.63;;;2.90;;
55756;SDS011;41676;44.610;44.078;2023-02-12T15:44:21;5.07;;;2.67;;
55756;SDS011;41676;44.610;44.078;2023-02-12T15:49:25;4.47;;;2.65;;
55756;SDS011;41676;44.610;44.078;2023-02-12T15:54:28;6.55;;;2.80;;
55756;SDS011;41676;44.610;44.078;2023-02-12T15:59:29;5.10;;;2.90;;
55756;SDS011;41676;44.610;44.078;2023-02-12T16:04:31;4.75;;;2.80;;
55756;SDS011;41676;44.610;44.078;2023-02-12T16:09:36;4.40;;;2.38;;
55756;SDS011;41676;44.610;44.078;2023-02-12T16:14:42;3.85;;;2.45;;
55756;SDS011;41676;44.610;44.078;2023-02-12T16:19:57;4.72;;;2.40;;
55756;SDS011;41676;44.610;44.078;2023-02-12T16:24:59;4.30;;;2.40;;
55756;SDS011;41676;44.610;44.078;2023-02-12T16:30:03;4.47;;;2.50;;
55756;SDS011;41676;44.610;44.078;2023-02-12T16:50:28;4.25;;;2.42;;
55756;SDS011;41676;44.610;44.078;2023-02-12T16:55:31;5.53;;;2.55;;
55756;SDS011;41676;44.610;44.078;2023-02-12T17:00:33;4.30;;;2.50;;
55756;SDS011;41676;44.610;44.078;2023-02-12T17:05:36;4.95;;;2.78;;
55756;SDS011;41676;44.610;44.078;2023-02-12T17:10:37;5.70;;;2.90;;
55756;SDS011;41676;44.610;44.078;2023-02-12T17:20:50;6.07;;;3.33;;
55756;SDS011;41676;44.610;44.078;2023-02-12T17:25:56;5.18;;;3.22;;
55756;SDS011;41676;44.610;44.078;2023-02-12T17:30:57;5.13;;;3.08;;
55756;SDS011;41676;44.610;44.078;2023-02-12T17:35:58;7.15;;;3.33;;
55756;SDS011;41676;44.610;44.078;2023-02-12T17:40:59;5.05;;;2.97;;
55756;SDS011;41676;44.610;44.078;2023-02-12T17:46:00;5.40;;;2.60;;
55756;SDS011;41676;44.610;44.078;2023-02-12T17:51:00;5.03;;;2.90;;
55756;SDS011;41676;44.610;44.078;2023-02-12T17:56:01;3.95;;;2.28;;
55756;SDS011;41676;44.610;44.078;2023-02-12T18:01:03;6.22;;;2.92;;
55756;SDS011;41676;44.610;44.078;2023-02-12T18:06:05;5.32;;;3.08;;
55756;SDS011;41676;44.610;44.078;2023-02-12T18:11:07;5.65;;;2.83;;
55756;SDS011;41676;44.610;44.078;2023-02-12T18:16:09;5.65;;;2.97;;
55756;SDS011;41676;44.610;44.078;2023-02-12T18:21:11;10.63;;;4.00;;
55756;SDS011;41676;44.610;44.078;2023-02-12T18:26:14;10.23;;;4.72;;
55756;SDS011;41676;44.610;44.078;2023-02-12T18:31:17;7.03;;;3.90;;
55756;SDS011;41676;44.610;44.078;2023-02-12T18:36:19;7.82;;;3.75;;
55756;SDS011;41676;44.610;44.078;2023-02-12T18:41:23;7.72;;;4.07;;
55756;SDS011;41676;44.610;44.078;2023-02-12T18:46:26;6.68;;;3.58;;
55756;SDS011;41676;44.610;44.078;2023-02-12T18:51:29;9.13;;;4.30;;
55756;SDS011;41676;44.610;44.078;2023-02-12T18:56:36;8.60;;;4.63;;
55756;SDS011;41676;44.610;44.078;2023-02-12T19:06:42;12.13;;;6.18;;
55756;SDS011;41676;44.610;44.078;2023-02-12T19:11:45;13.73;;;6.57;;
55756;SDS011;41676;44.610;44.078;2023-02-12T19:16:47;14.13;;;6.53;;
55756;SDS011;41676;44.610;44.078;2023-02-12T19:21:48;14.95;;;6.85;;
55756;SDS011;41676;44.610;44.078;2023-02-12T19:26:51;12.45;;;6.97;;
55756;SDS011;41676;44.610;44.078;2023-02-12T19:31:52;13.68;;;6.85;;
55756;SDS011;41676;44.610;44.078;2023-02-12T19:36:53;13.68;;;6.82;;
55756;SDS011;41676;44.610;44.078;2023-02-12T19:41:53;14.27;;;7.80;;
55756;SDS011;41676;44.610;44.078;2023-02-12T19:46:55;14.30;;;7.28;;
55756;SDS011;41676;44.610;44.078;2023-02-12T19:51:56;15.90;;;8.18;;
55756;SDS011;41676;44.610;44.078;2023-02-12T19:56:57;11.55;;;7.10;;
55756;SDS011;41676;44.610;44.078;2023-02-12T20:01:58;12.98;;;6.82;;
55756;SDS011;41676;44.610;44.078;2023-02-12T20:06:59;12.73;;;7.50;;
55756;SDS011;41676;44.610;44.078;2023-02-12T20:12:00;15.43;;;8.20;;
55756;SDS011;41676;44.610;44.078;2023-02-12T20:17:01;15.18;;;8.25;;
55756;SDS011;41676;44.610;44.078;2023-02-12T20:22:02;17.67;;;8.63;;
55756;SDS011;41676;44.610;44.078;2023-02-12T20:27:03;19.38;;;9.60;;
55756;SDS011;41676;44.610;44.078;2023-02-12T20:32:04;22.92;;;10.10;;
55756;SDS011;41676;44.610;44.078;2023-02-12T20:37:05;23.40;;;10.80;;
55756;SDS011;41676;44.610;44.078;2023-02-12T20:42:06;20.20;;;10.85;;
55756;SDS011;41676;44.610;44.078;2023-02-12T20:47:07;19.35;;;10.30;;
55756;SDS011;41676;44.610;44.078;2023-02-12T20:52:08;17.92;;;10.23;;
55756;SDS011;41676;44.610;44.078;2023-02-12T20:57:08;19.98;;;10.00;;
55756;SDS011;41676;44.610;44.078;2023-02-12T21:02:10;18.10;;;9.90;;
55756;SDS011;41676;44.610;44.078;2023-02-12T21:07:11;19.80;;;9.93;;
55756;SDS011;41676;44.610;44.078;2023-02-12T21:12:12;19.77;;;9.80;;
55756;SDS011;41676;44.610;44.078;2023-02-12T21:17:12;19.20;;;9.98;;
55756;SDS011;41676;44.610;44.078;2023-02-12T21:22:13;18.10;;;9.88;;
55756;SDS011;41676;44.610;44.078;2023-02-12T21:27:14;18.48;;;10.02;;
55756;SDS011;41676;44.610;44.078;2023-02-12T21:32:15;20.52;;;9.93;;
55756;SDS011;41676;44.610;44.078;2023-02-12T21:37:15;22.45;;;11.40;;
55756;SDS011;41676;44.610;44.078;2023-02-12T21:42:16;20.23;;;10.13;;
55756;SDS011;41676;44.610;44.078;2023-02-12T21:47:17;18.90;;;10.45;;
55756;SDS011;41676;44.610;44.078;2023-02-12T21:52:18;23.58;;;11.43;;
55756;SDS011;41676;44.610;44.078;2023-02-12T21:57:19;24.33;;;10.75;;
55756;SDS011;41676;44.610;44.078;2023-02-12T22:02:21;24.02;;;12.02;;
55756;SDS011;41676;44.610;44.078;2023-02-12T22:07:21;25.10;;;12.75;;
55756;SDS011;41676;44.610;44.078;2023-02-12T22:12:22;22.77;;;12.27;;
55756;SDS011;41676;44.610;44.078;2023-02-12T22:17:23;23.33;;;12.52;;
55756;SDS011;41676;44.610;44.078;2023-02-12T22:22:24;24.55;;;12.45;;
55756;SDS011;41676;44.610;44.078;2023-02-12T22:27:25;21.75;;;11.48;;
55756;SDS011;41676;44.610;44.078;2023-02-12T22:32:30;20.05;;;11.25;;
55756;SDS011;41676;44.610;44.078;2023-02-12T22:37:31;23.25;;;12.02;;
55756;SDS011;41676;44.610;44.078;2023-02-12T22:42:31;23.73;;;12.23;;
55756;SDS011;41676;44.610;44.078;2023-02-12T22:47:32;24.45;;;12.02;;
55756;SDS011;41676;44.610;44.078;2023-02-12T22:52:33;21.95;;;12.43;;
55756;SDS011;41676;44.610;44.078;2023-02-12T22:57:34;24.60;;;12.30;;
55756;SDS011;41676;44.610;44.078;2023-02-12T23:02:34;21.45;;;12.40;;
55756;SDS011;41676;44.610;44.078;2023-02-12T23:07:35;26.73;;;13.55;;
55756;SDS011;41676;44.610;44.078;2023-02-12T23:12:36;27.08;;;13.85;;
55756;SDS011;41676;44.610;44.078;2023-02-12T23:17:36;27.48;;;13.85;;
55756;SDS011;41676;44.610;44.078;2023-02-12T23:22:37;26.35;;;13.32;;
55756;SDS011;41676;44.610;44.078;2023-02-12T23:27:38;27.85;;;14.13;;
55756;SDS011;41676;44.610;44.078;2023-02-12T23:32:39;32.00;;;16.55;;
55756;SDS011;41676;44.610;44.078;2023-02-12T23:37:39;31.58;;;16.27;;
55756;SDS011;41676;44.610;44.078;2023-02-12T23:42:40;34.58;;;17.58;;
55756;SDS011;41676;44.610;44.078;2023-02-12T23:47:41;35.65;;;19.08;;
55756;SDS011;41676;44.610;44.078;2023-02-12T23:52:42;31.85;;;17.42;;
55756;SDS011;41676;44.610;44.078;2023-02-12T23:57:43;39.95;;;19.30;;
